Time;durP1;ratioP1;P1;durP2;ratioP2;P2;SDS_P1;SDS_P2;PMS_P1;PMS_P2;Temp;Humidity;BMP_temperature;BMP_pressure;BME280_temperature;BME280_humidity;BME280_pressure;Samples;Min_cycle;Max_cycle;Signal;HPM_P1;HPM_P2
2021/11/17 02:27:41;;;;;;;3.67;2.83;;;9.40;95.90;;;;;;5028407;28;20099;-57
2021/11/17 02:30:28;;;;;;;9.48;4.45;;;9.30;95.90;;;;;;5024043;28;20452;-57
2021/11/17 02:33:20;;;;;;;6.57;2.97;;;9.30;96.20;;;;;;5022622;28;20042;-58
2021/11/17 02:36:05;;;;;;;6.55;2.67;;;9.30;96.10;;;;;;4672542;28;10000470;-58
2021/11/17 02:38:47;;;;;;;8.73;3.53;;;9.30;96.00;;;;;;5019449;28;20050;-57
2021/11/17 02:41:23;;;;;;;11.05;3.17;;;9.30;96.10;;;;;;5023388;28;20112;-57
2021/11/17 02:43:57;;;;;;;6.75;3.78;;;9.20;95.80;;;;;;5013609;28;20045;-56
2021/11/17 02:47:09;;;;;;;7.05;3.50;;;9.20;95.90;;;;;;5025575;28;20084;-57
2021/11/17 02:49:45;;;;;;;9.60;3.22;;;9.20;96.00;;;;;;5015669;28;20080;-57
2021/11/17 02:52:56;;;;;;;4.50;3.40;;;9.20;95.90;;;;;;5027166;28;20115;-57
2021/11/17 02:55:34;;;;;;;9.80;2.92;;;9.20;96.00;;;;;;4986299;28;20046;-57
2021/11/17 02:58:12;;;;;;;6.30;2.92;;;9.10;96.20;;;;;;5018046;28;20045;-58
2021/11/17 03:00:45;;;;;;;6.68;3.25;;;9.00;96.50;;;;;;5028368;28;20133;-58
2021/11/17 03:03:30;;;;;;;6.00;2.78;;;9.00;96.40;;;;;;5021965;28;20496;-58
2021/11/17 03:06:37;;;;;;;6.05;2.80;;;9.00;96.40;;;;;;5027686;28;20061;-57
2021/11/17 03:09:09;;;;;;;6.97;3.17;;;9.00;96.40;;;;;;5028333;28;20056;-57
2021/11/17 03:11:58;;;;;;;5.07;2.95;;;9.00;96.30;;;;;;5028187;28;20053;-57
2021/11/17 03:14:56;;;;;;;4.60;3.03;;;9.00;96.60;;;;;;5020848;28;20307;-57
2021/11/17 03:17:50;;;;;;;6.10;2.92;;;9.00;96.50;;;;;;5027724;28;20180;-57
2021/11/17 03:20:41;;;;;;;;;;;9.10;96.30;;;;;;5021751;28;20080;-57
2021/11/17 03:23:08;;;;;;;6.00;2.63;;;9.10;96.80;;;;;;5027449;28;20020;-58
2021/11/17 03:26:04;;;;;;;6.35;2.35;;;9.10;96.00;;;;;;5027774;28;20041;-56
2021/11/17 03:28:39;;;;;;;6.38;3.20;;;9.10;96.00;;;;;;4950041;28;20142;-57
2021/11/17 03:31:25;;;;;;;5.25;2.45;;;9.00;96.00;;;;;;5022930;28;20252;-57
2021/11/17 03:34:24;;;;;;;6.70;2.88;;;9.00;96.00;;;;;;5027622;28;20539;-57
2021/11/17 03:36:53;;;;;;;4.97;2.85;;;9.00;96.10;;;;;;5010650;28;20045;-57
2021/11/17 03:39:43;;;;;;;9.40;3.55;;;8.90;96.00;;;;;;5028197;28;20057;-59
2021/11/17 03:42:23;;;;;;;6.07;3.05;;;8.90;96.50;;;;;;5019193;28;20092;-57
2021/11/17 03:44:58;;;;;;;5.43;2.97;;;8.90;96.20;;;;;;5028313;28;20095;-58
2021/11/17 03:47:44;;;;;;;13.40;4.57;;;8.90;96.20;;;;;;5020823;28;20111;-57
2021/11/17 03:50:23;;;;;;;7.10;2.85;;;8.90;96.50;;;;;;5027384;28;20496;-57
2021/11/17 03:53:03;;;;;;;6.85;2.92;;;8.80;96.20;;;;;;5027005;28;20044;-57
2021/11/17 03:55:51;;;;;;;6.50;3.35;;;8.80;96.30;;;;;;5027527;28;20073;-57
2021/11/17 03:58:29;;;;;;;7.90;3.40;;;8.80;96.40;;;;;;5026821;28;20119;-56
2021/11/17 04:01:08;;;;;;;7.45;2.60;;;8.80;96.20;;;;;;5016936;28;20516;-57
2021/11/17 04:03:57;;;;;;;4.95;2.40;;;8.80;96.20;;;;;;5021256;28;20412;-57
2021/11/17 04:06:42;;;;;;;4.85;2.92;;;8.80;96.50;;;;;;5017531;28;20513;-57
2021/11/17 04:09:21;;;;;;;5.90;2.33;;;8.80;96.60;;;;;;5024800;28;20132;-55
2021/11/17 04:12:12;;;;;;;3.85;2.35;;;8.70;96.30;;;;;;5012059;28;20045;-56
2021/11/17 04:15:05;;;;;;;6.63;2.78;;;8.70;96.70;;;;;;5025762;28;20083;-55
2021/11/17 04:17:57;;;;;;;5.13;2.25;;;8.70;96.90;;;;;;5023939;28;20217;-55
2021/11/17 04:20:52;;;;;;;3.30;2.05;;;8.70;97.00;;;;;;5015595;28;20136;-58
2021/11/17 04:23:42;;;;;;;4.88;2.40;;;8.70;96.70;;;;;;5016310;28;20158;-57
2021/11/17 04:26:19;;;;;;;3.28;1.92;;;8.60;96.60;;;;;;5019510;28;20123;-58
2021/11/17 04:29:24;;;;;;;4.85;2.20;;;8.60;97.00;;;;;;5024234;28;20124;-57
2021/11/17 04:32:19;;;;;;;5.00;2.20;;;8.60;97.20;;;;;;5024409;28;20045;-56
2021/11/17 04:35:02;;;;;;;3.72;2.63;;;8.60;97.00;;;;;;5023953;28;20042;-57
2021/11/17 04:38:06;;;;;;;4.03;2.00;;;8.60;97.10;;;;;;5027114;28;20073;-58
2021/11/17 04:40:43;;;;;;;4.88;1.85;;;8.60;96.90;;;;;;5026684;28;20379;-56
2021/11/17 04:43:31;;;;;;;8.10;2.25;;;8.60;96.60;;;;;;5027089;28;20084;-56
2021/11/17 04:46:07;;;;;;;4.80;2.33;;;8.60;97.00;;;;;;5025079;28;20095;-55
2021/11/17 04:48:40;;;;;;;5.18;1.83;;;8.50;96.50;;;;;;5026473;28;20045;-57
2021/11/17 04:51:39;;;;;;;6.50;3.63;;;8.50;96.50;;;;;;5027218;28;20053;-56
2021/11/17 04:54:24;;;;;;;3.05;1.67;;;8.50;96.60;;;;;;5013527;28;20076;-55
2021/11/17 04:57:28;;;;;;;4.88;2.22;;;8.50;97.00;;;;;;5016970;28;20081;-57
2021/11/17 05:00:18;;;;;;;4.55;2.42;;;8.50;97.10;;;;;;5017610;28;20508;-56
2021/11/17 05:02:54;;;;;;;5.13;2.10;;;8.40;96.80;;;;;;5026106;28;20675;-56
2021/11/17 05:05:41;;;;;;;6.13;2.65;;;8.40;96.60;;;;;;5015826;28;20563;-56
2021/11/17 05:08:10;;;;;;;7.32;1.90;;;8.40;97.00;;;;;;5022815;28;20076;-56
2021/11/17 05:11:07;;;;;;;4.10;2.30;;;8.40;96.70;;;;;;5015788;28;20085;-55
2021/11/17 05:13:37;;;;;;;4.65;1.88;;;8.40;96.80;;;;;;5002743;28;20065;-55
2021/11/17 05:16:06;;;;;;;6.20;2.55;;;8.40;96.80;;;;;;5025727;28;20671;-54
2021/11/17 05:18:43;;;;;;;6.93;2.08;;;8.30;96.90;;;;;;5019140;28;20432;-56
2021/11/17 05:21:31;;;;;;;4.80;2.17;;;8.30;97.60;;;;;;5027783;28;20104;-57
2021/11/17 05:24:07;;;;;;;5.47;2.30;;;8.30;97.30;;;;;;5027117;28;20505;-61
2021/11/17 05:26:34;;;;;;;4.50;2.17;;;8.30;97.10;;;;;;5027415;28;20168;-56
2021/11/17 05:29:26;;;;;;;7.85;2.88;;;8.30;97.10;;;;;;5023066;28;20534;-56
2021/11/17 05:32:11;;;;;;;5.78;2.58;;;8.30;97.10;;;;;;5028469;28;20505;-55
2021/11/17 05:35:08;;;;;;;7.00;2.65;;;8.30;97.40;;;;;;5030143;28;20057;-57
2021/11/17 05:37:50;;;;;;;5.85;2.20;;;8.40;97.20;;;;;;5027230;28;20049;-56
2021/11/17 05:40:35;;;;;;;8.95;1.98;;;8.40;97.10;;;;;;5025252;28;20526;-60
2021/11/17 05:43:17;;;;;;;4.43;2.20;;;8.40;97.20;;;;;;5029595;28;20053;-57
2021/11/17 05:45:44;;;;;;;6.05;2.63;;;8.50;97.00;;;;;;5029692;28;20548;-56
2021/11/17 05:48:29;;;;;;;4.28;2.22;;;8.40;96.80;;;;;;5029478;28;20057;-57
2021/11/17 05:50:55;;;;;;;11.40;2.50;;;8.40;96.80;;;;;;5029357;28;20099;-57
2021/11/17 05:53:22;;;;;;;8.48;2.80;;;8.30;96.90;;;;;;5022699;28;20083;-56
2021/11/17 05:56:15;;;;;;;6.05;2.45;;;8.30;96.90;;;;;;5029413;28;20091;-56
2021/11/17 05:58:54;;;;;;;8.82;3.30;;;8.20;97.10;;;;;;5023060;28;20531;-56
2021/11/17 06:01:23;;;;;;;6.05;2.88;;;8.20;97.10;;;;;;5028016;28;20037;-57
2021/11/17 06:04:01;;;;;;;7.35;2.63;;;8.20;97.10;;;;;;5018824;28;20046;-58
2021/11/17 06:06:28;;;;;;;6.22;2.70;;;8.20;97.20;;;;;;5026928;28;20108;-56
2021/11/17 06:08:54;;;;;;;6.88;3.08;;;8.20;97.20;;;;;;5029096;28;20092;-58
2021/11/17 06:11:31;;;;;;;5.63;2.28;;;8.20;97.40;;;;;;5029330;28;20068;-56
2021/11/17 06:13:58;;;;;;;9.68;3.42;;;8.30;97.50;;;;;;5028225;28;20053;-57
2021/11/17 06:16:25;;;;;;;8.93;3.05;;;8.30;97.40;;;;;;5029677;28;20409;-57
2021/11/17 06:18:53;;;;;;;8.02;3.30;;;8.30;97.40;;;;;;5025024;28;20057;-54
2021/11/17 06:21:20;;;;;;;7.75;3.00;;;8.30;97.40;;;;;;5029674;28;20053;-56
2021/11/17 06:23:53;;;;;;;4.38;2.00;;;8.30;97.50;;;;;;5028000;28;20080;-59
2021/11/17 06:26:21;;;;;;;7.78;2.58;;;8.30;97.40;;;;;;5013703;28;20042;-57
2021/11/17 06:28:54;;;;;;;5.57;3.17;;;8.40;97.30;;;;;;5028177;28;20041;-57
2021/11/17 06:31:21;;;;;;;8.43;3.17;;;8.30;97.30;;;;;;5011492;28;20567;-56
2021/11/17 06:33:48;;;;;;;8.63;3.25;;;8.30;97.20;;;;;;5022702;28;20057;-56
2021/11/17 06:36:16;;;;;;;9.32;3.50;;;8.40;97.20;;;;;;5028676;28;20484;-57
2021/11/17 06:38:46;;;;;;;7.32;3.38;;;8.50;97.40;;;;;;5028623;28;20140;-56
2021/11/17 06:41:14;;;;;;;7.95;3.28;;;8.40;97.30;;;;;;5027778;28;20049;-56
2021/11/17 06:43:40;;;;;;;7.68;3.33;;;8.40;97.30;;;;;;5025459;28;20080;-57
2021/11/17 06:46:07;;;;;;;10.48;2.78;;;8.40;97.30;;;;;;5016653;28;20049;-56
2021/11/17 06:48:34;;;;;;;6.20;3.10;;;8.40;97.40;;;;;;5027015;28;20045;-56
2021/11/17 06:51:02;;;;;;;10.93;3.30;;;8.40;97.40;;;;;;5028936;28;20068;-54
2021/11/17 06:53:29;;;;;;;7.35;3.72;;;8.50;97.50;;;;;;5025126;28;20049;-57
2021/11/17 06:56:05;;;;;;;9.35;3.83;;;8.50;97.50;;;;;;5023183;28;20049;-59
2021/11/17 06:58:33;;;;;;;5.32;2.92;;;8.60;97.50;;;;;;5018031;28;20041;-63
2021/11/17 07:00:59;;;;;;;11.18;3.78;;;8.70;97.40;;;;;;5022273;28;20092;-61
2021/11/17 07:03:28;;;;;;;10.57;4.72;;;8.60;97.30;;;;;;5025162;28;20053;-57
2021/11/17 07:05:56;;;;;;;10.80;4.10;;;8.70;97.40;;;;;;5025225;28;20041;-57
2021/11/17 07:08:23;;;;;;;6.88;3.78;;;8.70;97.20;;;;;;5015471;28;21371;-56
2021/11/17 07:10:50;;;;;;;11.02;3.90;;;8.70;97.20;;;;;;5027740;28;20560;-56
2021/11/17 07:13:17;;;;;;;7.68;3.10;;;8.70;97.10;;;;;;5027740;28;20046;-57
2021/11/17 07:15:43;;;;;;;9.25;3.65;;;8.70;96.90;;;;;;5026106;28;20076;-57
2021/11/17 07:18:14;;;;;;;7.63;3.75;;;8.60;97.00;;;;;;5028215;28;20424;-57
2021/11/17 07:20:41;;;;;;;12.40;4.25;;;8.60;97.00;;;;;;5025537;28;20045;-57
2021/11/17 07:23:08;;;;;;;9.65;4.38;;;8.50;97.00;;;;;;5028241;28;20455;-55
2021/11/17 07:25:35;;;;;;;9.52;3.80;;;8.50;97.10;;;;;;5027610;28;20115;-54
2021/11/17 07:28:02;;;;;;;9.88;4.95;;;8.50;97.10;;;;;;5025582;28;20049;-52
2021/11/17 07:30:35;;;;;;;5.18;3.58;;;8.40;97.00;;;;;;5024072;28;20133;-52
2021/11/17 07:33:03;;;;;;;9.73;3.83;;;8.40;97.10;;;;;;5018740;28;20046;-54
2021/11/17 07:35:35;;;;;;;12.70;4.80;;;8.40;97.00;;;;;;5025559;28;20072;-55
2021/11/17 07:38:03;;;;;;;9.15;3.88;;;8.30;96.90;;;;;;5026536;28;20045;-53
2021/11/17 07:40:31;;;;;;;14.00;4.28;;;8.40;97.00;;;;;;5019220;28;20041;-55
2021/11/17 07:42:58;;;;;;;6.80;3.72;;;8.40;96.90;;;;;;5026832;28;20132;-52
2021/11/17 07:45:25;;;;;;;8.75;3.53;;;8.40;96.80;;;;;;5025454;28;20118;-55
2021/11/17 07:47:52;;;;;;;11.35;5.28;;;8.30;96.80;;;;;;5025994;28;20128;-54
2021/11/17 07:50:19;;;;;;;11.82;4.35;;;8.30;96.70;;;;;;5025677;28;20344;-55
2021/11/17 07:52:46;;;;;;;12.52;3.90;;;8.30;96.80;;;;;;5024994;28;20045;-59
2021/11/17 07:55:14;;;;;;;8.48;4.25;;;8.40;96.80;;;;;;5018410;28;20096;-55
2021/11/17 07:57:42;;;;;;;18.27;5.25;;;8.30;96.80;;;;;;5025982;28;20088;-57
2021/11/17 08:00:17;;;;;;;12.85;4.35;;;8.30;96.70;;;;;;5009069;28;20050;-55
2021/11/17 08:02:44;;;;;;;7.82;4.38;;;8.30;96.70;;;;;;5024655;28;20137;-58
2021/11/17 08:05:11;;;;;;;14.48;3.83;;;8.30;96.70;;;;;;5011412;28;20095;-54
2021/11/17 08:07:38;;;;;;;8.52;4.78;;;8.20;96.80;;;;;;5008582;28;20064;-55
2021/11/17 08:10:16;;;;;;;10.77;3.97;;;8.30;96.90;;;;;;5023305;28;20076;-55
2021/11/17 08:12:42;;;;;;;7.40;4.32;;;8.30;96.80;;;;;;5008544;28;20041;-56
2021/11/17 08:15:09;;;;;;;14.52;5.20;;;8.30;96.80;;;;;;5025751;28;20191;-54
2021/11/17 08:17:38;;;;;;;5.22;3.78;;;8.30;96.80;;;;;;5014059;28;20073;-54
2021/11/17 08:20:10;;;;;;;11.05;4.47;;;8.30;96.80;;;;;;5016449;28;20115;-54
2021/11/17 08:22:41;;;;;;;9.88;3.78;;;8.30;96.90;;;;;;5021169;28;20061;-56
2021/11/17 08:25:08;;;;;;;8.68;4.72;;;8.30;96.90;;;;;;5014893;28;20046;-53
2021/11/17 08:27:35;;;;;;;14.77;4.45;;;8.30;96.90;;;;;;5026270;28;20046;-54
2021/11/17 08:30:04;;;;;;;6.82;4.13;;;8.30;96.90;;;;;;5025589;28;20076;-53
2021/11/17 08:32:31;;;;;;;5.85;3.90;;;8.30;96.90;;;;;;5018266;28;20196;-56
2021/11/17 08:34:57;;;;;;;11.18;5.00;;;8.30;97.30;;;;;;5023697;28;20512;-55
2021/11/17 08:37:24;;;;;;;8.40;4.80;;;8.30;97.00;;;;;;5024814;28;20050;-56
2021/11/17 08:39:53;;;;;;;14.20;4.57;;;8.40;97.00;;;;;;5022432;28;20049;-57
2021/11/17 08:42:20;;;;;;;8.27;4.15;;;8.40;97.00;;;;;;5019523;28;20479;-54
2021/11/17 08:44:47;;;;;;;10.30;3.95;;;8.60;97.00;;;;;;5017566;28;20579;-55
2021/11/17 08:47:16;;;;;;;11.57;3.70;;;8.40;97.00;;;;;;5025071;28;20096;-55
2021/11/17 08:49:43;;;;;;;13.90;4.20;;;8.30;97.10;;;;;;5014445;28;20053;-56
2021/11/17 08:52:11;;;;;;;10.00;3.45;;;8.40;97.00;;;;;;5015931;28;20045;-52
2021/11/17 08:54:38;;;;;;;8.85;3.97;;;8.40;97.00;;;;;;5023382;28;20140;-54
2021/11/17 08:57:05;;;;;;;8.65;4.30;;;8.40;97.00;;;;;;5020536;28;20046;-52
2021/11/17 08:59:32;;;;;;;14.68;6.22;;;8.40;97.00;;;;;;5012016;28;20096;-55
2021/11/17 09:02:03;;;;;;;13.20;4.57;;;8.50;97.00;;;;;;5017879;28;20099;-54
2021/11/17 09:04:30;;;;;;;17.90;4.47;;;8.50;97.00;;;;;;5013581;28;20721;-54
2021/11/17 09:06:57;;;;;;;11.75;4.57;;;8.50;96.90;;;;;;5021177;28;20077;-56
2021/11/17 09:09:24;;;;;;;10.32;3.90;;;8.50;96.70;;;;;;5020638;28;20496;-54
2021/11/17 09:11:52;;;;;;;11.48;4.38;;;8.60;96.70;;;;;;5022507;28;20065;-54
2021/11/17 09:14:20;;;;;;;8.52;3.95;;;8.70;96.70;;;;;;5019740;28;20124;-55
2021/11/17 09:16:47;;;;;;;9.82;3.20;;;8.80;96.60;;;;;;5030295;28;20079;-55
2021/11/17 09:19:16;;;;;;;17.17;4.20;;;8.80;96.50;;;;;;5021350;28;20046;-55
2021/11/17 09:21:44;;;;;;;7.07;3.80;;;8.90;96.50;;;;;;5016993;28;20049;-56
2021/11/17 09:24:12;;;;;;;10.70;3.67;;;9.00;96.30;;;;;;5027246;28;20050;-53
2021/11/17 09:26:39;;;;;;;12.32;5.82;;;9.00;96.30;;;;;;5029790;28;20076;-54
2021/11/17 09:29:05;;;;;;;18.60;7.13;;;9.20;96.20;;;;;;5030256;28;20597;-59
2021/11/17 09:31:33;;;;;;;11.40;3.60;;;9.30;95.60;;;;;;5027873;28;20053;-54
2021/11/17 09:34:00;;;;;;;18.45;3.55;;;9.30;95.50;;;;;;5025796;28;20109;-52
2021/11/17 09:36:28;;;;;;;18.30;3.78;;;9.40;95.30;;;;;;5028495;28;20033;-53
2021/11/17 09:38:55;;;;;;;11.20;3.42;;;9.50;94.80;;;;;;5029717;28;20053;-54
2021/11/17 09:41:28;;;;;;;11.43;2.35;;;9.50;94.30;;;;;;5029638;28;20089;-53
2021/11/17 09:43:57;;;;;;;20.48;3.38;;;9.50;93.10;;;;;;5021599;28;20104;-54
2021/11/17 09:46:26;;;;;;;16.20;3.17;;;9.40;93.10;;;;;;5030237;28;20084;-54
2021/11/17 09:48:55;;;;;;;22.27;3.10;;;9.50;94.20;;;;;;5021092;28;20470;-55
2021/11/17 09:51:25;;;;;;;19.70;3.25;;;9.50;94.40;;;;;;5021709;28;20103;-53
2021/11/17 09:54:11;;;;;;;18.75;4.40;;;9.50;94.10;;;;;;5021650;28;20061;-54
2021/11/17 09:56:43;;;;;;;17.58;3.47;;;9.50;92.70;;;;;;5016226;28;20099;-53
2021/11/17 09:59:21;;;;;;;13.45;2.97;;;9.50;93.60;;;;;;5029949;28;20101;-54
2021/11/17 10:02:02;;;;;;;18.45;4.22;;;9.50;93.70;;;;;;5011240;28;20049;-54
2021/11/17 10:04:47;;;;;;;14.95;5.22;;;9.50;92.60;;;;;;5020130;28;20053;-54
2021/11/17 10:11:04;;;;;;;15.60;3.13;;;9.70;92.70;;;;;;5027049;28;20050;-52
2021/11/17 10:13:19;;;;;;;24.15;4.00;;;9.80;92.70;;;;;;5020664;28;20073;-52
2021/11/17 10:15:50;;;;;;;20.80;3.45;;;9.90;93.30;;;;;;5026537;28;20152;-54
2021/11/17 10:18:21;;;;;;;9.68;2.83;;;9.90;93.30;;;;;;5029429;28;20042;-55
2021/11/17 10:20:48;;;;;;;23.75;6.72;;;9.90;92.70;;;;;;5026840;28;20116;-55
2021/11/17 10:23:19;;;;;;;16.08;3.53;;;10.00;93.20;;;;;;5018877;28;20049;-52
2021/11/17 10:25:48;;;;;;;22.10;3.40;;;10.00;91.20;;;;;;5025067;28;20076;-55
2021/11/17 10:28:44;;;;;;;18.17;3.08;;;10.00;92.70;;;;;;5029119;28;20053;-54
2021/11/17 10:31:42;;;;;;;17.38;3.13;;;10.00;90.40;;;;;;5019993;28;20445;-55
2021/11/17 10:34:34;;;;;;;15.88;2.78;;;10.10;90.70;;;;;;5012248;28;20072;-55
2021/11/17 10:37:10;;;;;;;17.17;3.13;;;10.10;89.60;;;;;;5027245;28;20136;-54
2021/11/17 10:39:37;;;;;;;13.70;3.22;;;10.10;91.10;;;;;;5026703;28;20084;-54
2021/11/17 10:42:20;;;;;;;10.52;2.60;;;10.20;91.60;;;;;;5017962;28;20140;-56
2021/11/17 10:45:09;;;;;;;30.95;5.40;;;10.20;89.80;;;;;;5020354;28;20047;-53
2021/11/17 10:47:45;;;;;;;21.60;4.18;;;10.20;89.10;;;;;;5024823;28;20433;-54
2021/11/17 10:50:24;;;;;;;21.17;3.17;;;10.30;91.60;;;;;;5015999;28;20144;-52
2021/11/17 10:52:53;;;;;;;19.63;5.57;;;10.30;90.30;;;;;;5018730;28;20497;-52
2021/11/17 10:55:41;;;;;;;17.85;3.42;;;10.40;90.30;;;;;;5018124;28;20477;-54
2021/11/17 10:58:10;;;;;;;18.83;3.20;;;10.40;88.60;;;;;;5022040;28;20084;-55
2021/11/17 11:00:40;;;;;;;20.85;3.70;;;10.40;89.10;;;;;;5021543;28;20331;-53
2021/11/17 11:03:08;;;;;;;16.23;3.45;;;10.40;90.70;;;;;;5029027;28;20152;-53
2021/11/17 11:05:38;;;;;;;18.30;3.25;;;10.50;90.60;;;;;;5023904;28;20298;-55
2021/11/17 11:08:16;;;;;;;15.02;3.55;;;10.60;90.90;;;;;;5027464;28;20093;-54
2021/11/17 11:10:55;;;;;;;14.75;4.13;;;10.60;90.30;;;;;;5020853;28;20104;-55
2021/11/17 11:13:25;;;;;;;13.60;2.72;;;10.60;89.90;;;;;;5019552;28;20468;-56
2021/11/17 11:15:55;;;;;;;25.30;3.72;;;10.60;90.60;;;;;;5003323;28;20053;-53
2021/11/17 11:18:25;;;;;;;24.73;3.97;;;10.60;90.10;;;;;;5023499;28;20045;-58
2021/11/17 11:20:54;;;;;;;22.40;3.10;;;10.60;88.30;;;;;;5020080;28;20209;-55
2021/11/17 11:23:28;;;;;;;21.48;4.22;;;10.70;90.30;;;;;;5018852;28;20463;-56
2021/11/17 11:26:17;;;;;;;19.42;3.60;;;10.70;86.20;;;;;;5020468;28;20119;-55
2021/11/17 11:28:47;;;;;;;19.05;3.72;;;10.80;87.80;;;;;;5022732;28;20085;-53
2021/11/17 11:31:16;;;;;;;15.00;3.28;;;10.80;89.80;;;;;;5017687;28;20478;-56
2021/11/17 11:34:10;;;;;;;19.25;5.10;;;10.80;87.00;;;;;;5024149;28;20053;-54
2021/11/17 11:36:46;;;;;;;11.43;3.17;;;10.90;88.00;;;;;;5014937;28;20107;-55
2021/11/17 11:39:17;;;;;;;30.55;4.03;;;10.90;86.40;;;;;;5027923;28;20045;-55
2021/11/17 11:42:04;;;;;;;19.90;3.35;;;10.90;89.40;;;;;;5019070;28;20045;-55
2021/11/17 11:44:42;;;;;;;25.70;2.97;;;11.00;89.10;;;;;;5020110;28;20045;-55
2021/11/17 11:47:09;;;;;;;18.52;4.25;;;11.00;85.80;;;;;;5018709;28;20076;-56
2021/11/17 11:49:54;;;;;;;18.42;4.32;;;11.00;87.00;;;;;;5026558;28;20065;-54
2021/11/17 11:52:24;;;;;;;20.02;3.17;;;11.00;83.70;;;;;;5017929;28;20042;-55
2021/11/17 11:54:51;;;;;;;13.80;3.10;;;11.00;88.30;;;;;;5024804;28;20081;-53
2021/11/17 11:57:37;;;;;;;23.35;5.05;;;11.00;88.10;;;;;;5023962;28;20053;-55
2021/11/17 12:00:26;;;;;;;21.70;5.30;;;11.10;85.40;;;;;;5022796;28;20128;-55
2021/11/17 12:02:57;;;;;;;16.25;3.03;;;11.10;83.20;;;;;;5014619;28;20041;-55
2021/11/17 12:05:37;;;;;;;19.40;3.47;;;11.10;82.20;;;;;;5017935;28;20103;-52
2021/11/17 12:08:10;;;;;;;15.90;4.28;;;11.30;81.90;;;;;;5017893;28;20049;-54
2021/11/17 12:11:02;;;;;;;18.42;2.88;;;11.20;84.20;;;;;;5018651;28;20049;-53
2021/11/17 12:13:31;;;;;;;16.73;3.15;;;11.30;84.10;;;;;;5019701;28;20132;-55
2021/11/17 12:16:09;;;;;;;20.52;3.65;;;11.40;83.90;;;;;;5014574;28;20145;-52
2021/11/17 12:18:51;;;;;;;15.95;4.22;;;11.30;81.40;;;;;;5022526;28;20925;-54
2021/11/17 12:21:22;;;;;;;14.15;3.30;;;11.30;82.10;;;;;;5011905;28;20558;-61
2021/11/17 12:24:07;;;;;;;13.07;3.72;;;11.30;83.70;;;;;;5019554;28;20133;-51
2021/11/17 12:26:36;;;;;;;17.13;2.97;;;11.40;82.10;;;;;;5016391;28;20523;-52
2021/11/17 12:29:14;;;;;;;23.33;3.05;;;11.50;85.10;;;;;;5020485;28;20511;-53
2021/11/17 12:32:04;;;;;;;14.77;3.08;;;11.40;81.10;;;;;;5026238;28;20437;-54
2021/11/17 12:34:51;;;;;;;15.00;2.45;;;11.50;80.90;;;;;;5026364;28;20041;-54
2021/11/17 12:37:38;;;;;;;12.65;2.92;;;11.50;80.80;;;;;;5029972;28;20061;-56
2021/11/17 12:40:31;;;;;;;23.20;3.17;;;11.50;83.60;;;;;;5025001;28;20137;-57
2021/11/17 12:42:59;;;;;;;14.95;2.72;;;11.50;82.10;;;;;;5027893;28;20069;-53
2021/11/17 12:45:36;;;;;;;20.35;4.05;;;11.60;84.70;;;;;;5023849;28;20103;-55
2021/11/17 12:48:26;;;;;;;13.88;2.40;;;11.50;85.30;;;;;;5025749;28;20065;-56
2021/11/17 12:50:57;;;;;;;14.40;2.60;;;11.60;80.30;;;;;;5031071;28;20097;-56
2021/11/17 12:53:30;;;;;;;20.42;2.97;;;11.60;82.60;;;;;;5029932;28;20092;-51
2021/11/17 12:56:23;;;;;;;17.85;2.75;;;11.50;84.00;;;;;;5022194;28;20160;-58
2021/11/17 12:58:56;;;;;;;12.80;3.17;;;11.50;82.80;;;;;;5022204;28;20084;-54
2021/11/17 13:01:33;;;;;;;15.45;4.05;;;11.60;84.00;;;;;;5024134;28;20489;-52
2021/11/17 13:04:34;;;;;;;16.20;3.05;;;11.50;81.50;;;;;;5030457;28;20060;-53
2021/11/17 13:07:04;;;;;;;12.27;3.33;;;11.60;81.80;;;;;;5010805;28;20076;-52
2021/11/17 13:09:50;;;;;;;8.73;2.55;;;11.60;83.60;;;;;;5008458;28;20109;-53
2021/11/17 13:12:19;;;;;;;21.35;3.95;;;11.70;81.80;;;;;;5028643;28;20076;-52
2021/11/17 13:14:46;;;;;;;17.60;2.90;;;11.70;83.50;;;;;;5030858;28;20084;-53
2021/11/17 13:17:38;;;;;;;12.32;3.35;;;11.70;84.00;;;;;;5022544;28;20053;-53
2021/11/17 13:20:14;;;;;;;20.35;3.25;;;11.60;81.20;;;;;;5027172;28;20497;-53
2021/11/17 13:22:46;;;;;;;16.63;3.05;;;11.70;83.20;;;;;;5026130;28;20046;-56
2021/11/17 13:25:26;;;;;;;24.75;4.60;;;11.70;84.20;;;;;;5026428;28;20118;-57
2021/11/17 13:27:55;;;;;;;15.57;3.25;;;11.70;82.90;;;;;;5029918;28;20049;-52
2021/11/17 13:30:45;;;;;;;15.15;2.63;;;11.70;83.60;;;;;;5022636;28;20049;-55
2021/11/17 13:33:26;;;;;;;11.07;2.65;;;11.50;81.00;;;;;;5020898;28;20041;-53
2021/11/17 13:36:08;;;;;;;20.63;5.03;;;11.70;81.10;;;;;;5023007;28;20045;-51
2021/11/17 13:38:36;;;;;;;13.10;2.65;;;11.80;82.50;;;;;;5030150;28;20073;-53
2021/11/17 13:41:09;;;;;;;15.82;3.05;;;11.80;82.80;;;;;;5030235;28;20345;-55
2021/11/17 13:43:37;;;;;;;13.48;3.08;;;11.80;82.00;;;;;;5028607;28;20549;-54
2021/11/17 13:46:07;;;;;;;13.95;2.85;;;11.80;84.00;;;;;;5022700;28;20041;-51
2021/11/17 13:48:36;;;;;;;27.55;3.88;;;11.90;80.50;;;;;;5029596;28;20053;-54
2021/11/17 13:51:05;;;;;;;13.90;3.25;;;12.00;81.80;;;;;;5029647;28;20087;-53
2021/11/17 13:53:32;;;;;;;12.93;2.72;;;12.00;79.30;;;;;;5029805;28;20042;-51
2021/11/17 13:56:07;;;;;;;12.20;3.50;;;12.00;79.00;;;;;;5028241;28;20049;-52
2021/11/17 13:58:34;;;;;;;18.00;2.47;;;12.00;75.60;;;;;;5005565;28;20042;-55
2021/11/17 14:01:01;;;;;;;12.60;2.28;;;12.00;80.50;;;;;;5029953;28;20547;-52
2021/11/17 14:03:30;;;;;;;14.43;2.70;;;12.10;75.90;;;;;;5028259;28;20069;-54
2021/11/17 14:06:03;;;;;;;9.35;2.70;;;12.00;76.60;;;;;;5029161;28;20088;-56
2021/11/17 14:08:31;;;;;;;14.07;3.15;;;12.00;78.00;;;;;;5029235;28;20104;-53
2021/11/17 14:10:58;;;;;;;17.60;4.15;;;12.00;79.70;;;;;;5019044;28;20041;-56
2021/11/17 14:13:25;;;;;;;19.05;3.40;;;12.00;78.70;;;;;;5029218;28;20099;-61
2021/11/17 14:15:52;;;;;;;16.30;2.75;;;12.00;77.10;;;;;;5029166;28;20095;-56
2021/11/17 14:18:20;;;;;;;13.15;2.50;;;12.00;79.60;;;;;;5028124;28;20379;-56
2021/11/17 14:20:46;;;;;;;19.05;3.55;;;12.00;79.20;;;;;;5029021;28;20088;-54
2021/11/17 14:23:14;;;;;;;14.77;3.33;;;12.00;78.60;;;;;;5029101;28;20451;-55
2021/11/17 14:25:42;;;;;;;20.88;3.53;;;12.10;80.20;;;;;;5022311;28;20385;-53
2021/11/17 14:28:16;;;;;;;13.77;2.53;;;12.10;78.40;;;;;;5026934;28;20103;-56
2021/11/17 14:30:52;;;;;;;15.15;2.65;;;12.10;76.90;;;;;;5024851;28;20045;-56
2021/11/17 14:33:21;;;;;;;18.92;2.58;;;12.00;76.40;;;;;;5028458;28;20049;-52
2021/11/17 14:35:48;;;;;;;18.52;3.03;;;12.00;79.40;;;;;;5021936;28;20080;-54
2021/11/17 14:38:17;;;;;;;15.73;3.28;;;12.00;78.70;;;;;;5027968;28;20084;-53
2021/11/17 14:40:45;;;;;;;12.75;3.05;;;11.90;79.30;;;;;;5026462;28;20101;-55
2021/11/17 14:43:14;;;;;;;15.52;3.30;;;11.90;76.80;;;;;;5028707;28;20501;-55
2021/11/17 14:45:40;;;;;;;12.43;2.42;;;11.90;76.40;;;;;;5028000;28;20149;-52
2021/11/17 14:48:07;;;;;;;10.32;1.83;;;11.80;77.70;;;;;;5029219;28;20045;-55
2021/11/17 14:50:34;;;;;;;16.05;3.22;;;11.80;77.70;;;;;;5027632;28;20128;-53
2021/11/17 14:53:01;;;;;;;20.45;3.95;;;11.80;77.80;;;;;;5028478;28;20556;-54
2021/11/17 14:55:28;;;;;;;14.35;3.92;;;11.80;76.80;;;;;;5028413;28;20552;-55
2021/11/17 14:57:55;;;;;;;15.38;2.80;;;11.90;79.30;;;;;;5028450;28;20092;-54
2021/11/17 15:00:36;;;;;;;11.98;3.22;;;11.90;78.20;;;;;;5028156;28;20136;-55
2021/11/17 15:03:03;;;;;;;15.90;2.97;;;12.00;75.90;;;;;;5027862;28;20124;-56
2021/11/17 15:05:30;;;;;;;21.67;4.22;;;11.90;78.80;;;;;;5028281;28;20103;-54
2021/11/17 15:07:58;;;;;;;20.48;3.72;;;12.00;79.30;;;;;;5028217;28;20510;-55
2021/11/17 15:10:25;;;;;;;12.65;2.33;;;12.00;79.40;;;;;;5025075;28;20104;-55
2021/11/17 15:12:52;;;;;;;15.98;2.97;;;12.00;79.00;;;;;;5017009;28;20073;-55
2021/11/17 15:15:22;;;;;;;15.00;2.83;;;12.00;79.70;;;;;;5007477;28;20141;-53
2021/11/17 15:17:49;;;;;;;14.70;3.05;;;12.10;78.40;;;;;;5024342;28;20041;-54
2021/11/17 15:20:16;;;;;;;20.77;3.13;;;12.10;78.70;;;;;;5028302;28;20100;-53
2021/11/17 15:22:43;;;;;;;21.92;3.35;;;12.30;79.40;;;;;;5027932;28;20069;-55
2021/11/17 15:25:11;;;;;;;18.40;4.30;;;12.40;78.00;;;;;;5027170;28;20073;-52
2021/11/17 15:27:46;;;;;;;24.00;3.13;;;12.20;76.70;;;;;;5026841;28;20734;-51
2021/11/17 15:30:20;;;;;;;17.02;3.13;;;12.10;77.40;;;;;;5025995;28;20073;-55
2021/11/17 15:32:47;;;;;;;14.45;2.90;;;12.00;80.10;;;;;;5022515;28;20057;-55
2021/11/17 15:35:13;;;;;;;17.65;2.92;;;11.90;80.00;;;;;;5018196;28;20113;-56
2021/11/17 15:37:41;;;;;;;15.52;3.08;;;11.70;80.20;;;;;;5027609;28;20057;-55
2021/11/17 15:40:11;;;;;;;26.40;4.93;;;11.70;79.60;;;;;;5026883;28;20452;-53
2021/11/17 15:42:39;;;;;;;28.55;4.70;;;11.60;80.80;;;;;;5021653;28;20140;-52
2021/11/17 15:45:07;;;;;;;20.17;3.72;;;11.50;81.30;;;;;;5026525;28;20061;-51
2021/11/17 15:47:33;;;;;;;22.02;4.03;;;11.50;81.40;;;;;;5025624;28;20051;-54
2021/11/17 15:50:00;;;;;;;14.43;3.67;;;11.40;81.20;;;;;;5026539;28;20348;-54
2021/11/17 15:52:27;;;;;;;16.42;3.78;;;11.20;81.80;;;;;;5025554;28;20056;-52
2021/11/17 15:54:54;;;;;;;31.85;4.95;;;11.40;82.20;;;;;;4674294;28;10000655;-52
2021/11/17 15:57:21;;;;;;;20.48;3.85;;;11.30;82.20;;;;;;5023230;28;20089;-53